createdAt,value
2023-04-10T00:00:24.476Z,4.57
2023-04-10T00:01:24.285Z,4.58
2023-04-10T00:02:24.465Z,4.61
2023-04-10T00:03:24.532Z,4.57
2023-04-10T00:04:24.326Z,4.50
2023-04-10T00:05:24.393Z,4.49
2023-04-10T00:06:24.202Z,4.46
2023-04-10T00:07:24.277Z,4.46
2023-04-10T00:08:24.410Z,4.46
2023-04-10T00:09:24.184Z,4.43
2023-04-10T00:10:24.171Z,4.46
2023-04-10T00:11:24.151Z,4.48
2023-04-10T00:12:24.129Z,4.48
2023-04-10T00:13:24.116Z,4.46
2023-04-10T00:14:24.139Z,4.50
2023-04-10T00:15:24.106Z,4.49
2023-04-10T00:16:24.141Z,4.49
2023-04-10T00:17:24.171Z,4.46
2023-04-10T00:18:24.059Z,4.42
2023-04-10T00:19:24.036Z,4.39
2023-04-10T00:20:24.049Z,4.38
2023-04-10T00:21:24.033Z,4.39
2023-04-10T00:22:23.998Z,4.38
2023-04-10T00:23:23.988Z,4.39
2023-04-10T00:24:23.977Z,4.40
2023-04-10T00:25:24.003Z,4.40
2023-04-10T00:26:23.974Z,4.42
2023-04-10T00:27:23.931Z,4.45
2023-04-10T00:28:23.927Z,4.45
2023-04-10T00:29:23.909Z,4.45
2023-04-10T00:30:23.936Z,4.46
2023-04-10T00:31:23.928Z,4.43
2023-04-10T00:32:24.256Z,4.42
2023-04-10T00:33:23.870Z,4.39
2023-04-10T00:34:23.840Z,4.36
2023-04-10T00:35:23.826Z,4.34
2023-04-10T00:36:23.860Z,4.28
2023-04-10T00:37:23.795Z,4.27
2023-04-10T00:38:23.790Z,4.25
2023-04-10T00:39:23.778Z,4.25
2023-04-10T00:40:23.788Z,4.21
2023-04-10T00:41:23.769Z,4.16
2023-04-10T00:42:23.736Z,4.13
2023-04-10T00:43:23.730Z,4.16
2023-04-10T00:44:23.723Z,4.16
2023-04-10T00:45:23.700Z,4.18
2023-04-10T00:46:23.740Z,4.21
2023-04-10T00:47:23.680Z,4.20
2023-04-10T00:48:23.656Z,4.16
2023-04-10T00:49:23.639Z,4.13
2023-04-10T00:50:23.630Z,4.12
2023-04-10T00:51:23.634Z,4.06
2023-04-10T00:52:23.602Z,4.04
2023-04-10T00:53:23.609Z,4.04
2023-04-10T00:54:23.579Z,4.04
2023-04-10T00:55:23.557Z,4.04
2023-04-10T00:56:23.578Z,4.03
2023-04-10T00:57:23.535Z,4.04
2023-04-10T00:58:23.537Z,4.06
2023-04-10T00:59:23.504Z,4.02
2023-04-10T01:00:23.503Z,3.99
2023-04-10T01:01:23.577Z,4.00
2023-04-10T01:02:23.766Z,3.99
2023-04-10T01:03:23.767Z,3.94
2023-04-10T01:04:23.557Z,3.94
2023-04-10T01:05:23.427Z,3.92
2023-04-10T01:06:23.453Z,3.89
2023-04-10T01:07:23.391Z,3.86
2023-04-10T01:08:23.385Z,3.86
2023-04-10T01:09:23.379Z,3.89
2023-04-10T01:10:23.356Z,3.89
2023-04-10T01:11:23.367Z,3.89
2023-04-10T01:12:23.468Z,3.94
2023-04-10T01:13:23.315Z,3.95
2023-04-10T01:14:23.313Z,3.95
2023-04-10T01:15:23.293Z,3.99
2023-04-10T01:16:23.330Z,4.00
2023-04-10T01:17:23.288Z,4.00
2023-04-10T01:18:23.257Z,4.02
2023-04-10T01:19:23.235Z,4.03
2023-04-10T01:20:23.227Z,4.00
2023-04-10T01:21:23.232Z,4.00
2023-04-10T01:22:23.262Z,3.99
2023-04-10T01:23:23.188Z,3.95
2023-04-10T01:24:23.220Z,3.94
2023-04-10T01:25:23.156Z,3.92
2023-04-10T01:26:23.171Z,3.89
2023-04-10T01:27:23.135Z,3.85
2023-04-10T01:28:23.129Z,3.88
2023-04-10T01:29:23.128Z,3.86
2023-04-10T01:30:23.103Z,3.88
2023-04-10T01:31:23.126Z,3.85
2023-04-10T01:32:23.109Z,3.86
2023-04-10T01:33:23.059Z,3.84
2023-04-10T01:34:23.063Z,3.84
2023-04-10T01:35:23.084Z,3.84
2023-04-10T01:36:23.028Z,3.84
2023-04-10T01:37:23.012Z,3.86
2023-04-10T01:38:23.000Z,3.85
2023-04-10T01:39:22.971Z,3.85
2023-04-10T01:40:22.955Z,3.86
2023-04-10T01:41:22.949Z,3.85
2023-04-10T01:42:22.962Z,3.84
2023-04-10T01:43:22.932Z,3.81
2023-04-10T01:44:22.908Z,3.81
2023-04-10T01:45:22.890Z,3.77
2023-04-10T01:46:22.952Z,3.76
2023-04-10T01:47:22.900Z,3.76
2023-04-10T01:48:22.857Z,3.73
2023-04-10T01:49:22.896Z,3.74
2023-04-10T01:50:22.824Z,3.70
2023-04-10T01:51:22.820Z,3.68
2023-04-10T01:52:22.937Z,3.67
2023-04-10T01:53:22.794Z,3.64
2023-04-10T01:54:22.803Z,3.61
2023-04-10T01:55:22.771Z,3.59
2023-04-10T01:56:22.770Z,3.59
2023-04-10T01:57:22.762Z,3.59
2023-04-10T01:58:22.730Z,3.59
2023-04-10T01:59:22.720Z,3.59
2023-04-10T02:00:22.800Z,3.58
2023-04-10T02:01:29.705Z,3.59
2023-04-10T02:02:23.777Z,3.59
2023-04-10T02:03:23.058Z,3.63
2023-04-10T02:04:22.744Z,3.61
2023-04-10T02:05:22.635Z,3.53
2023-04-10T02:06:22.641Z,3.50
2023-04-10T02:07:22.628Z,3.48
2023-04-10T02:08:22.609Z,3.46
2023-04-10T02:09:22.582Z,3.45
2023-04-10T02:10:22.587Z,3.41
2023-04-10T02:11:22.562Z,3.43
2023-04-10T02:12:22.583Z,3.48
2023-04-10T02:13:22.537Z,3.49
2023-04-10T02:14:22.546Z,3.52
2023-04-10T02:15:22.501Z,3.52
2023-04-10T02:16:22.513Z,3.55
2023-04-10T02:17:22.531Z,3.56
2023-04-10T02:18:22.469Z,3.58
2023-04-10T02:19:22.460Z,3.58
2023-04-10T02:20:22.448Z,3.56
2023-04-10T02:21:22.442Z,3.53
2023-04-10T02:22:22.439Z,3.52
2023-04-10T02:23:22.402Z,3.55
2023-04-10T02:24:22.394Z,3.53
2023-04-10T02:25:22.370Z,3.52
2023-04-10T02:26:22.374Z,3.56
2023-04-10T02:27:22.426Z,3.55
2023-04-10T02:28:22.341Z,3.56
2023-04-10T02:29:22.329Z,3.59
2023-04-10T02:30:22.444Z,3.58
2023-04-10T02:31:22.338Z,3.58
2023-04-10T02:32:22.324Z,3.58
2023-04-10T02:33:22.287Z,3.59
2023-04-10T02:34:22.256Z,3.61
2023-04-10T02:35:22.244Z,3.59
2023-04-10T02:36:22.246Z,3.61
2023-04-10T02:37:22.196Z,3.64
2023-04-10T02:38:22.228Z,3.63
2023-04-10T02:39:22.179Z,3.63
2023-04-10T02:40:22.177Z,3.59
2023-04-10T02:41:22.149Z,3.58
2023-04-10T02:42:22.160Z,3.56
2023-04-10T02:43:22.157Z,3.55
2023-04-10T02:44:22.118Z,3.52
2023-04-10T02:45:22.103Z,3.48
2023-04-10T02:46:22.152Z,3.45
2023-04-10T02:47:22.090Z,3.45
2023-04-10T02:48:22.091Z,3.46
2023-04-10T02:49:22.062Z,3.48
2023-04-10T02:50:22.056Z,3.49
2023-04-10T02:51:22.024Z,3.50
2023-04-10T02:52:22.028Z,3.53
2023-04-10T02:53:22.017Z,3.55
2023-04-10T02:54:21.987Z,3.61
2023-04-10T02:55:21.978Z,3.59
2023-04-10T02:56:21.980Z,3.58
2023-04-10T02:57:21.943Z,3.59
2023-04-10T02:58:21.987Z,3.58
2023-04-10T02:59:21.944Z,3.58
2023-04-10T03:00:21.939Z,3.55
2023-04-10T03:01:21.919Z,3.52
2023-04-10T03:02:22.098Z,3.50
2023-04-10T03:03:22.004Z,3.52
2023-04-10T03:04:22.082Z,3.52
2023-04-10T03:05:21.856Z,3.53
2023-04-10T03:06:21.838Z,3.58
2023-04-10T03:07:21.816Z,3.55
2023-04-10T03:08:21.799Z,3.53
2023-04-10T03:09:21.788Z,3.55
2023-04-10T03:10:21.786Z,3.53
2023-04-10T03:11:21.756Z,3.49
2023-04-10T03:12:21.747Z,3.48
2023-04-10T03:13:21.760Z,3.46
2023-04-10T03:14:21.732Z,3.41
2023-04-10T03:15:21.733Z,3.37
2023-04-10T03:16:21.769Z,3.36
2023-04-10T03:17:21.674Z,3.37
2023-04-10T03:18:21.698Z,3.43
2023-04-10T03:19:21.653Z,3.43
2023-04-10T03:20:21.660Z,3.43
2023-04-10T03:21:21.626Z,3.43
2023-04-10T03:22:21.653Z,3.45
2023-04-10T03:23:21.616Z,3.45
2023-04-10T03:24:21.575Z,3.46
2023-04-10T03:25:21.603Z,3.40
2023-04-10T03:26:21.577Z,3.36
2023-04-10T03:27:21.838Z,3.34
2023-04-10T03:28:21.548Z,3.33
2023-04-10T03:29:21.511Z,3.29
2023-04-10T03:30:21.526Z,3.26
2023-04-10T03:31:21.511Z,3.27
2023-04-10T03:32:21.487Z,3.29
2023-04-10T03:33:21.478Z,3.29
2023-04-10T03:34:21.570Z,3.26
2023-04-10T03:35:21.508Z,3.22
2023-04-10T03:36:21.434Z,3.18
2023-04-10T03:37:21.413Z,3.18
2023-04-10T03:38:21.415Z,3.15
2023-04-10T03:39:21.400Z,3.12
2023-04-10T03:40:21.386Z,3.13
2023-04-10T03:41:22.629Z,3.13
2023-04-10T03:42:21.356Z,3.13
2023-04-10T03:43:21.339Z,3.15
2023-04-10T03:44:21.325Z,3.12
2023-04-10T03:45:21.323Z,3.12
2023-04-10T03:46:21.334Z,3.11
2023-04-10T03:47:21.312Z,3.11
2023-04-10T03:48:21.274Z,3.09
2023-04-10T03:49:21.256Z,3.09
2023-04-10T03:50:21.278Z,3.06
2023-04-10T03:51:21.242Z,3.03
2023-04-10T03:52:21.212Z,3.01
2023-04-10T03:53:21.220Z,3.00
2023-04-10T03:54:21.195Z,2.98
2023-04-10T03:55:21.243Z,3.00
2023-04-10T03:56:21.188Z,3.01
2023-04-10T03:57:21.170Z,3.06
2023-04-10T03:58:21.161Z,3.06
2023-04-10T03:59:24.286Z,3.06
2023-04-10T04:00:22.133Z,3.05
2023-04-10T04:01:21.092Z,3.08
2023-04-10T04:02:21.221Z,3.06
2023-04-10T04:03:21.260Z,3.08
2023-04-10T04:04:21.187Z,3.08
2023-04-10T04:05:21.057Z,3.03
2023-04-10T04:06:21.072Z,3.03
2023-04-10T04:07:21.012Z,3.00
2023-04-10T04:08:21.003Z,2.97
2023-04-10T04:09:20.986Z,2.95
2023-04-10T04:10:20.974Z,2.93
2023-04-10T04:11:20.984Z,2.93
2023-04-10T04:12:20.978Z,2.93
2023-04-10T04:13:20.930Z,2.95
2023-04-10T04:14:20.931Z,2.95
2023-04-10T04:15:20.919Z,2.95
2023-04-10T04:16:21.010Z,2.97
2023-04-10T04:17:20.900Z,2.98
2023-04-10T04:18:20.885Z,2.95
2023-04-10T04:19:20.861Z,2.94
2023-04-10T04:20:20.849Z,2.93
2023-04-10T04:21:20.856Z,2.93
2023-04-10T04:22:20.820Z,2.91
2023-04-10T04:23:20.800Z,2.91
2023-04-10T04:24:20.797Z,2.93
2023-04-10T04:25:20.791Z,2.94
2023-04-10T04:26:20.802Z,2.94
2023-04-10T04:27:20.760Z,2.91
2023-04-10T04:28:20.731Z,2.91
2023-04-10T04:29:20.741Z,2.90
2023-04-10T04:30:20.709Z,2.90
2023-04-10T04:31:20.764Z,2.90
2023-04-10T04:32:20.768Z,2.88
2023-04-10T04:33:20.681Z,2.87
2023-04-10T04:34:20.663Z,2.87
2023-04-10T04:35:20.648Z,2.83
2023-04-10T04:36:20.652Z,2.77
2023-04-10T04:37:20.616Z,2.77
2023-04-10T04:38:20.610Z,2.79
2023-04-10T04:39:20.598Z,2.77
2023-04-10T04:40:20.573Z,2.76
2023-04-10T04:41:20.761Z,2.79
2023-04-10T04:42:20.561Z,2.79
2023-04-10T04:43:20.553Z,2.82
2023-04-10T04:44:20.523Z,2.87
2023-04-10T04:45:20.521Z,2.87
2023-04-10T04:46:20.547Z,2.88
2023-04-10T04:47:20.553Z,2.90
2023-04-10T04:48:20.486Z,2.88
2023-04-10T04:49:20.456Z,2.87
2023-04-10T04:50:20.451Z,2.87
2023-04-10T04:51:20.462Z,2.83
2023-04-10T04:52:20.416Z,2.80
2023-04-10T04:53:20.404Z,2.80
2023-04-10T04:54:20.411Z,2.83
2023-04-10T04:55:20.407Z,2.82
2023-04-10T04:56:20.409Z,2.82
2023-04-10T04:57:20.358Z,2.85
2023-04-10T04:58:20.337Z,2.85
2023-04-10T04:59:20.332Z,2.88
2023-04-10T05:00:20.320Z,2.88
2023-04-10T05:01:20.367Z,2.91
2023-04-10T05:02:20.381Z,2.93
2023-04-10T05:03:20.449Z,2.91
2023-04-10T05:04:20.308Z,2.90
2023-04-10T05:05:20.243Z,2.91
2023-04-10T05:06:20.265Z,2.91
2023-04-10T05:07:20.220Z,2.90
2023-04-10T05:08:20.204Z,2.90
2023-04-10T05:09:20.199Z,2.90
2023-04-10T05:10:20.180Z,2.88
2023-04-10T05:11:20.188Z,2.88
2023-04-10T05:12:20.155Z,2.87
2023-04-10T05:13:20.148Z,2.87
2023-04-10T05:14:20.118Z,2.85
2023-04-10T05:15:20.131Z,2.85
2023-04-10T05:16:20.190Z,2.85
2023-04-10T05:17:20.129Z,2.88
2023-04-10T05:18:20.244Z,2.87
2023-04-10T05:19:20.061Z,2.85
2023-04-10T05:20:20.048Z,2.87
2023-04-10T05:21:20.056Z,2.88
2023-04-10T05:22:20.015Z,2.88
2023-04-10T05:23:20.016Z,2.88
2023-04-10T05:24:20.033Z,2.91
2023-04-10T05:25:20.033Z,2.90
2023-04-10T05:26:19.986Z,2.93
2023-04-10T05:27:19.965Z,2.94
2023-04-10T05:28:20.351Z,2.95
2023-04-10T05:29:19.965Z,2.94
2023-04-10T05:30:19.910Z,2.95
2023-04-10T05:31:20.001Z,3.00
2023-04-10T05:32:19.914Z,3.00
2023-04-10T05:33:19.874Z,3.00
2023-04-10T05:34:19.856Z,3.03
2023-04-10T05:35:19.844Z,3.03
2023-04-10T05:36:19.873Z,3.06
2023-04-10T05:37:19.831Z,3.11
2023-04-10T05:38:19.816Z,3.12
2023-04-10T05:39:19.806Z,3.15
2023-04-10T05:40:19.793Z,3.16
2023-04-10T05:41:19.784Z,3.13
2023-04-10T05:42:21.131Z,3.15
2023-04-10T05:43:19.748Z,3.15
2023-04-10T05:44:19.741Z,3.15
2023-04-10T05:45:26.856Z,3.16
2023-04-10T05:46:20.055Z,3.19
2023-04-10T05:47:19.731Z,3.18
2023-04-10T05:48:19.682Z,3.18
2023-04-10T05:49:19.677Z,3.19
2023-04-10T05:50:20.036Z,3.19
2023-04-10T05:51:19.664Z,3.21
2023-04-10T05:52:19.630Z,3.24
2023-04-10T05:53:19.599Z,3.27
2023-04-10T05:54:19.599Z,3.30
2023-04-10T05:55:19.584Z,3.33
2023-04-10T05:56:19.635Z,3.40
2023-04-10T05:57:19.554Z,3.43
2023-04-10T05:58:19.550Z,3.48
2023-04-10T05:59:19.549Z,3.49
2023-04-10T06:00:19.525Z,3.52
2023-04-10T06:01:19.523Z,3.56
2023-04-10T06:02:19.684Z,3.59
2023-04-10T06:03:19.527Z,3.61
2023-04-10T06:04:19.521Z,3.63
2023-04-10T06:05:19.503Z,3.63
2023-04-10T06:06:19.452Z,3.66
2023-04-10T06:07:19.427Z,3.66
2023-04-10T06:08:19.411Z,3.67
2023-04-10T06:09:19.401Z,3.70
2023-04-10T06:10:19.379Z,3.71
2023-04-10T06:11:19.395Z,3.71
2023-04-10T06:12:19.356Z,3.73
2023-04-10T06:13:19.346Z,3.73
2023-04-10T06:14:19.329Z,3.76
2023-04-10T06:15:19.312Z,3.77
2023-04-10T06:16:19.372Z,3.81
2023-04-10T06:17:19.288Z,3.84
2023-04-10T06:18:19.313Z,3.85
2023-04-10T06:19:19.259Z,3.89
2023-04-10T06:20:19.249Z,3.92
2023-04-10T06:21:19.252Z,3.94
2023-04-10T06:22:19.218Z,3.95
2023-04-10T06:23:19.214Z,3.99
2023-04-10T06:24:19.201Z,4.02
2023-04-10T06:25:19.183Z,4.04
2023-04-10T06:26:19.180Z,4.06
2023-04-10T06:27:19.166Z,4.06
2023-04-10T06:28:19.448Z,4.07
2023-04-10T06:29:19.141Z,4.09
2023-04-10T06:30:19.121Z,4.09
2023-04-10T06:31:19.162Z,4.13
2023-04-10T06:32:19.117Z,4.14
2023-04-10T06:33:19.075Z,4.21
2023-04-10T06:34:19.076Z,4.24
2023-04-10T06:35:19.056Z,4.27
2023-04-10T06:36:19.052Z,4.30
2023-04-10T06:37:19.023Z,4.31
2023-04-10T06:38:19.011Z,4.34
2023-04-10T06:39:18.995Z,4.36
2023-04-10T06:40:18.981Z,4.40
2023-04-10T06:41:19.110Z,4.45
2023-04-10T06:42:18.964Z,4.49
2023-04-10T06:43:18.951Z,4.50
2023-04-10T06:44:18.937Z,4.56
2023-04-10T06:45:18.915Z,4.57
2023-04-10T06:46:18.965Z,4.61
2023-04-10T06:47:18.929Z,4.63
2023-04-10T06:48:18.879Z,4.66
2023-04-10T06:49:18.872Z,4.68
2023-04-10T06:50:18.860Z,4.68
2023-04-10T06:51:18.855Z,4.71
2023-04-10T06:52:18.822Z,4.75
2023-04-10T06:53:18.816Z,4.75
2023-04-10T06:54:19.136Z,4.79
2023-04-10T06:55:18.789Z,4.82
2023-04-10T06:56:18.786Z,4.87
2023-04-10T06:57:18.780Z,4.90
2023-04-10T06:58:18.753Z,4.90
2023-04-10T06:59:18.741Z,4.97
2023-04-10T07:00:18.713Z,4.98
2023-04-10T07:01:18.777Z,5.05
2023-04-10T07:02:18.758Z,5.08
2023-04-10T07:03:18.860Z,5.13
2023-04-10T07:04:18.664Z,5.16
2023-04-10T07:05:18.671Z,5.20
2023-04-10T07:06:18.632Z,5.25
2023-04-10T07:07:18.647Z,5.28
2023-04-10T07:08:18.653Z,5.28
2023-04-10T07:09:18.612Z,5.34
2023-04-10T07:10:18.598Z,5.36
2023-04-10T07:11:18.583Z,5.41
2023-04-10T07:12:18.570Z,5.46
2023-04-10T07:13:18.550Z,5.49
2023-04-10T07:14:18.531Z,5.51
2023-04-10T07:15:18.524Z,5.55
2023-04-10T07:16:18.541Z,5.61
2023-04-10T07:17:18.521Z,5.67
2023-04-10T07:18:18.481Z,5.74
2023-04-10T07:19:18.466Z,5.80
2023-04-10T07:20:18.482Z,5.84
2023-04-10T07:21:18.443Z,5.92
2023-04-10T07:22:18.442Z,5.97
2023-04-10T07:23:18.443Z,6.01
2023-04-10T07:24:18.413Z,6.07
2023-04-10T07:25:18.438Z,6.12
2023-04-10T07:26:18.373Z,6.17
2023-04-10T07:27:18.414Z,6.22
2023-04-10T07:28:18.341Z,6.29
2023-04-10T07:29:18.334Z,6.35
2023-04-10T07:30:18.321Z,6.39
2023-04-10T07:31:18.339Z,6.46
2023-04-10T07:32:18.428Z,6.50
2023-04-10T07:33:18.398Z,6.54
2023-04-10T07:34:18.262Z,6.57
2023-04-10T07:35:18.250Z,6.60
2023-04-10T07:36:18.273Z,6.68
2023-04-10T07:37:18.253Z,6.72
2023-04-10T07:38:18.205Z,6.77
2023-04-10T07:39:18.222Z,6.82
2023-04-10T07:40:18.209Z,6.86
2023-04-10T07:41:18.177Z,6.95
2023-04-10T07:42:18.246Z,7.00
2023-04-10T07:43:18.169Z,7.07
2023-04-10T07:44:18.131Z,7.13
2023-04-10T07:45:18.125Z,7.19
2023-04-10T07:46:18.202Z,7.25
2023-04-10T07:47:18.136Z,7.29
2023-04-10T07:48:18.083Z,7.36
2023-04-10T07:49:18.080Z,7.44
2023-04-10T07:50:18.048Z,7.47
2023-04-10T07:51:18.048Z,7.55
2023-04-10T07:52:18.039Z,7.59
2023-04-10T07:53:18.016Z,7.64
2023-04-10T07:54:18.005Z,7.70
2023-04-10T07:55:18.000Z,7.78
2023-04-10T07:56:17.974Z,7.81
2023-04-10T07:57:17.993Z,7.88
2023-04-10T07:58:17.972Z,7.95
2023-04-10T07:59:17.952Z,7.99
2023-04-10T08:00:17.928Z,8.06
2023-04-10T08:01:17.946Z,8.09
2023-04-10T08:02:18.000Z,8.16
2023-04-10T08:03:18.064Z,8.18
2023-04-10T08:04:18.273Z,8.23
2023-04-10T08:05:17.917Z,8.28
2023-04-10T08:06:17.846Z,8.34
2023-04-10T08:07:17.922Z,8.38
2023-04-10T08:08:17.823Z,8.44
2023-04-10T08:09:17.884Z,8.50
2023-04-10T08:10:17.827Z,8.59
2023-04-10T08:11:17.798Z,8.63
2023-04-10T08:12:17.907Z,8.71
2023-04-10T08:13:17.754Z,8.77
2023-04-10T08:14:18.221Z,8.84
2023-04-10T08:15:17.730Z,8.90
2023-04-10T08:16:17.741Z,8.96
2023-04-10T08:17:17.732Z,9.02
2023-04-10T08:18:17.697Z,9.09
2023-04-10T08:19:17.677Z,9.13
2023-04-10T08:20:17.688Z,9.19
2023-04-10T08:21:17.658Z,9.59
2023-04-10T08:22:17.639Z,9.94
2023-04-10T08:23:20.806Z,10.06
2023-04-10T08:24:17.620Z,10.15
2023-04-10T08:25:17.611Z,10.18
2023-04-10T08:26:17.568Z,10.24
2023-04-10T08:27:17.620Z,10.25
2023-04-10T08:28:17.550Z,10.28
2023-04-10T08:29:17.593Z,10.31
2023-04-10T08:30:17.566Z,10.31
2023-04-10T08:31:17.547Z,10.33
2023-04-10T08:32:17.518Z,10.34
2023-04-10T08:33:17.505Z,10.38
2023-04-10T08:34:17.469Z,10.41
2023-04-10T08:35:17.453Z,10.41
2023-04-10T08:36:19.808Z,10.45
2023-04-10T08:37:17.445Z,10.48
2023-04-10T08:38:17.407Z,10.53
2023-04-10T08:39:17.385Z,10.58
2023-04-10T08:40:17.386Z,10.61
2023-04-10T08:41:17.369Z,10.64
2023-04-10T08:42:17.376Z,10.67
2023-04-10T08:43:17.336Z,10.69
2023-04-10T08:44:17.330Z,10.75
2023-04-10T08:45:17.464Z,10.79
2023-04-10T08:46:17.446Z,10.83
2023-04-10T08:47:17.317Z,10.87
2023-04-10T08:48:17.282Z,10.89
2023-04-10T08:49:17.268Z,10.94
2023-04-10T08:50:17.260Z,10.98
2023-04-10T08:51:20.149Z,11.00
2023-04-10T08:52:17.269Z,11.01
2023-04-10T08:53:17.217Z,11.07
2023-04-10T08:54:17.205Z,11.13
2023-04-10T08:55:17.211Z,11.16
2023-04-10T08:56:17.186Z,11.18
2023-04-10T08:57:17.174Z,11.20
2023-04-10T08:58:17.166Z,11.20
2023-04-10T08:59:17.140Z,11.23
2023-04-10T09:00:23.344Z,11.26
2023-04-10T09:01:18.113Z,11.31
2023-04-10T09:02:17.235Z,11.31
2023-04-10T09:03:17.196Z,11.33
2023-04-10T09:04:17.241Z,11.37
2023-04-10T09:05:17.124Z,11.35
2023-04-10T09:06:17.194Z,11.38
2023-04-10T09:07:17.038Z,11.41
2023-04-10T09:08:17.033Z,11.44
2023-04-10T09:09:16.987Z,11.48
2023-04-10T09:10:16.995Z,11.51
2023-04-10T09:11:16.972Z,11.53
2023-04-10T09:12:17.023Z,11.58
2023-04-10T09:13:16.929Z,11.59
2023-04-10T09:14:16.921Z,11.65
2023-04-10T09:15:16.911Z,11.65
2023-04-10T09:16:16.949Z,11.68
2023-04-10T09:17:16.888Z,11.71
2023-04-10T09:18:16.866Z,11.70
2023-04-10T09:19:16.852Z,11.73
2023-04-10T09:20:16.851Z,11.70
2023-04-10T09:21:16.818Z,11.73
2023-04-10T09:22:16.817Z,11.73
2023-04-10T09:23:16.776Z,11.74
2023-04-10T09:24:16.795Z,11.76
2023-04-10T09:25:16.790Z,11.78
2023-04-10T09:26:16.791Z,11.81
2023-04-10T09:27:16.767Z,11.88
2023-04-10T09:28:16.730Z,11.95
2023-04-10T09:29:16.731Z,11.99
2023-04-10T09:30:16.717Z,12.02
2023-04-10T09:31:16.714Z,12.08
2023-04-10T09:32:16.661Z,12.11
2023-04-10T09:33:16.680Z,12.15
2023-04-10T09:34:16.670Z,12.20
2023-04-10T09:35:16.656Z,12.28
2023-04-10T09:36:16.643Z,12.30
2023-04-10T09:37:16.609Z,12.37
2023-04-10T09:38:16.612Z,12.47
2023-04-10T09:39:16.603Z,12.54
2023-04-10T09:40:16.576Z,12.55
2023-04-10T09:41:16.554Z,12.63
2023-04-10T09:42:16.552Z,12.66
2023-04-10T09:43:16.539Z,12.68
2023-04-10T09:44:16.524Z,12.69
2023-04-10T09:45:16.497Z,12.72
2023-04-10T09:46:16.523Z,12.75
2023-04-10T09:47:16.488Z,12.78
2023-04-10T09:48:16.464Z,12.81
2023-04-10T09:49:16.573Z,12.86
2023-04-10T09:50:16.473Z,12.90
2023-04-10T09:51:16.429Z,12.93
2023-04-10T09:52:16.414Z,12.98
2023-04-10T09:53:16.431Z,13.01
2023-04-10T09:54:16.403Z,13.05
2023-04-10T09:55:16.406Z,13.11
2023-04-10T09:56:16.356Z,13.17
2023-04-10T09:57:16.344Z,13.20
2023-04-10T09:58:16.355Z,13.24
2023-04-10T09:59:16.315Z,13.28
2023-04-10T10:00:16.297Z,13.33
2023-04-10T10:01:16.296Z,13.37
2023-04-10T10:02:16.419Z,13.40
2023-04-10T10:03:16.346Z,13.46
2023-04-10T10:04:16.322Z,13.50
2023-04-10T10:05:16.295Z,13.50
2023-04-10T10:06:16.219Z,13.55
2023-04-10T10:07:16.200Z,13.57
2023-04-10T10:08:16.218Z,13.60
2023-04-10T10:09:16.198Z,13.65
2023-04-10T10:10:16.150Z,13.70
2023-04-10T10:11:16.147Z,13.73
2023-04-10T10:12:16.147Z,13.78
2023-04-10T10:13:16.208Z,13.80
2023-04-10T10:14:16.135Z,13.83
2023-04-10T10:15:16.109Z,13.86
2023-04-10T10:16:16.114Z,13.91
2023-04-10T10:17:16.070Z,14.00
2023-04-10T10:18:16.074Z,14.03
2023-04-10T10:19:16.036Z,14.05
2023-04-10T10:20:16.047Z,14.05
2023-04-10T10:21:16.062Z,14.07
2023-04-10T10:22:16.007Z,14.07
2023-04-10T10:23:15.993Z,14.08
2023-04-10T10:24:15.991Z,14.11
2023-04-10T10:25:15.973Z,14.08
2023-04-10T10:26:15.958Z,14.08
2023-04-10T10:27:15.928Z,14.11
2023-04-10T10:28:15.949Z,14.08
2023-04-10T10:29:15.978Z,14.07
2023-04-10T10:30:28.034Z,14.07
2023-04-10T10:31:16.910Z,14.05
2023-04-10T10:32:15.854Z,14.01
2023-04-10T10:33:15.878Z,14.00
2023-04-10T10:34:15.902Z,14.04
2023-04-10T10:35:15.827Z,14.04
2023-04-10T10:36:15.839Z,14.05
2023-04-10T10:37:15.805Z,14.11
2023-04-10T10:38:15.809Z,14.12
2023-04-10T10:39:15.877Z,14.18
2023-04-10T10:40:15.759Z,14.18
2023-04-10T10:41:15.746Z,14.18
2023-04-10T10:42:15.743Z,14.19
2023-04-10T10:43:15.715Z,14.20
2023-04-10T10:44:15.714Z,14.22
2023-04-10T10:45:15.698Z,14.19
2023-04-10T10:46:15.774Z,14.15
2023-04-10T10:47:15.708Z,14.16
2023-04-10T10:48:15.687Z,14.15
2023-04-10T10:49:15.714Z,14.15
2023-04-10T10:50:15.675Z,14.13
2023-04-10T10:51:15.619Z,14.12
2023-04-10T10:52:15.611Z,14.11
2023-04-10T10:53:15.600Z,14.08
2023-04-10T10:54:15.582Z,14.08
2023-04-10T10:55:15.620Z,14.07
2023-04-10T10:56:15.587Z,14.05
2023-04-10T10:57:15.538Z,14.08
2023-04-10T10:58:15.521Z,14.07
2023-04-10T10:59:15.680Z,14.11
2023-04-10T11:00:15.597Z,14.12
2023-04-10T11:01:15.537Z,14.15
2023-04-10T11:02:15.692Z,14.19
2023-04-10T11:03:15.649Z,14.23
2023-04-10T11:04:15.532Z,14.20
2023-04-10T11:05:15.438Z,14.23
2023-04-10T11:06:15.414Z,14.30
2023-04-10T11:07:15.409Z,14.31
2023-04-10T11:08:15.413Z,14.33
2023-04-10T11:09:15.488Z,14.37
2023-04-10T11:10:15.398Z,14.37
2023-04-10T11:11:15.360Z,14.40
2023-04-10T11:12:15.333Z,14.41
2023-04-10T11:13:15.312Z,14.45
2023-04-10T11:14:15.316Z,14.44
2023-04-10T11:15:15.276Z,14.45
2023-04-10T11:16:15.312Z,14.45
2023-04-10T11:17:15.263Z,14.45
2023-04-10T11:18:15.256Z,14.49
2023-04-10T11:19:16.385Z,14.49
2023-04-10T11:20:15.241Z,14.51
2023-04-10T11:21:15.201Z,14.55
2023-04-10T11:22:15.203Z,14.58
2023-04-10T11:23:15.174Z,14.55
2023-04-10T11:24:15.179Z,14.53
2023-04-10T11:25:15.168Z,14.51
2023-04-10T11:26:15.151Z,14.49
2023-04-10T11:27:15.120Z,14.45
2023-04-10T11:28:15.118Z,14.44
2023-04-10T11:29:15.111Z,14.44
2023-04-10T11:30:15.101Z,14.44
2023-04-10T11:31:15.070Z,14.53
2023-04-10T11:32:15.203Z,14.66
2023-04-10T11:33:15.042Z,14.79
2023-04-10T11:34:15.040Z,14.82
2023-04-10T11:35:15.018Z,14.86
2023-04-10T11:36:14.992Z,14.93
2023-04-10T11:37:14.992Z,15.07
2023-04-10T11:38:14.992Z,15.14
2023-04-10T11:39:14.982Z,15.14
2023-04-10T11:40:14.998Z,15.19
2023-04-10T11:41:14.931Z,15.23
2023-04-10T11:42:14.925Z,15.29
2023-04-10T11:43:15.025Z,15.37
2023-04-10T11:44:14.914Z,15.45
2023-04-10T11:45:14.870Z,15.45
2023-04-10T11:46:14.925Z,15.55
2023-04-10T11:47:14.836Z,15.62
2023-04-10T11:48:14.831Z,15.67
2023-04-10T11:49:14.838Z,15.72
2023-04-10T11:50:14.812Z,15.73
2023-04-10T11:51:14.808Z,15.76
2023-04-10T11:52:14.779Z,15.80
2023-04-10T11:53:14.766Z,15.80
2023-04-10T11:54:14.778Z,15.78
2023-04-10T11:55:14.730Z,15.80
2023-04-10T11:56:14.729Z,15.80
2023-04-10T11:57:14.724Z,15.84
2023-04-10T11:58:14.699Z,15.88
2023-04-10T11:59:14.713Z,15.96
2023-04-10T12:00:14.682Z,15.99
2023-04-10T12:01:14.729Z,16.03
2023-04-10T12:02:14.902Z,16.08
2023-04-10T12:03:14.766Z,16.16
2023-04-10T12:04:14.817Z,16.21
2023-04-10T12:05:14.622Z,16.24
2023-04-10T12:06:14.583Z,16.26
2023-04-10T12:07:14.574Z,16.28
2023-04-10T12:08:14.547Z,16.28
2023-04-10T12:09:14.562Z,16.29
2023-04-10T12:10:14.569Z,16.31
2023-04-10T12:11:14.514Z,16.31
2023-04-10T12:12:14.504Z,16.34
2023-04-10T12:13:14.515Z,16.36
2023-04-10T12:14:14.477Z,16.36
2023-04-10T12:15:14.468Z,16.34
2023-04-10T12:16:14.506Z,16.34
2023-04-10T12:17:14.439Z,16.32
2023-04-10T12:18:14.486Z,16.31
2023-04-10T12:19:14.428Z,16.32
2023-04-10T12:20:14.400Z,16.29
2023-04-10T12:21:14.389Z,16.25
2023-04-10T12:22:14.379Z,16.24
2023-04-10T12:23:14.356Z,16.21
2023-04-10T12:24:14.367Z,16.18
2023-04-10T12:25:21.511Z,16.17
2023-04-10T12:26:14.356Z,16.18
2023-04-10T12:27:14.314Z,16.18
2023-04-10T12:28:14.322Z,16.18
2023-04-10T12:29:14.311Z,16.21
2023-04-10T12:30:14.278Z,16.21
2023-04-10T12:31:14.316Z,16.22
2023-04-10T12:32:14.281Z,16.25
2023-04-10T12:33:14.230Z,16.26
2023-04-10T12:34:14.234Z,16.28
2023-04-10T12:35:14.212Z,16.28
2023-04-10T12:36:14.215Z,16.31
2023-04-10T12:37:14.175Z,16.36
2023-04-10T12:38:14.204Z,16.40
2023-04-10T12:39:14.175Z,16.36
2023-04-10T12:40:14.161Z,16.37
2023-04-10T12:41:14.160Z,16.37
2023-04-10T12:42:14.119Z,16.36
2023-04-10T12:43:14.099Z,16.34
2023-04-10T12:44:14.123Z,16.34
2023-04-10T12:45:14.274Z,16.32
2023-04-10T12:46:14.073Z,16.31
2023-04-10T12:47:14.070Z,16.32
2023-04-10T12:48:14.055Z,16.29
2023-04-10T12:49:14.078Z,16.26
2023-04-10T12:50:14.007Z,16.25
2023-04-10T12:51:13.998Z,16.22
2023-04-10T12:52:13.989Z,16.17
2023-04-10T12:53:14.175Z,16.17
2023-04-10T12:54:13.961Z,16.16
2023-04-10T12:55:13.963Z,16.13
2023-04-10T12:56:13.980Z,16.10
2023-04-10T12:57:13.923Z,16.08
2023-04-10T12:58:13.900Z,16.05
2023-04-10T12:59:13.892Z,16.00
2023-04-10T13:00:13.907Z,15.96
2023-04-10T13:01:14.045Z,15.92
2023-04-10T13:02:14.065Z,15.90
2023-04-10T13:03:13.952Z,15.90
2023-04-10T13:04:13.930Z,15.87
2023-04-10T13:05:13.822Z,15.84
2023-04-10T13:06:13.781Z,15.83
2023-04-10T13:07:13.779Z,15.81
2023-04-10T13:08:13.753Z,15.76